createdAt,value
2019-02-24T00:00:30.031Z,119.00
2019-02-24T00:02:55.501Z,127.53
2019-02-24T00:05:25.659Z,108.43
2019-02-24T00:07:54.201Z,102.80
2019-02-24T00:10:22.888Z,122.27
2019-02-24T00:12:51.773Z,114.37
2019-02-24T00:15:20.459Z,125.13
2019-02-24T00:17:49.449Z,123.47
2019-02-24T00:20:18.041Z,123.23
2019-02-24T00:22:46.618Z,111.30
2019-02-24T00:25:15.427Z,116.70
2019-02-24T00:30:42.207Z,108.20
2019-02-24T00:33:18.329Z,111.67
2019-02-24T00:38:14.768Z,91.70
2019-02-24T00:40:43.652Z,96.17
2019-02-24T00:43:18.581Z,97.45
2019-02-24T00:45:47.678Z,107.40
2019-02-24T00:48:16.380Z,110.53
2019-02-24T00:51:03.274Z,112.95
2019-02-24T00:53:32.162Z,124.33
2019-02-24T00:56:02.898Z,121.57
2019-02-24T00:58:31.789Z,111.87
2019-02-24T01:01:01.189Z,110.97
2019-02-24T01:03:43.286Z,100.07
2019-02-24T01:06:12.198Z,111.68
2019-02-24T01:11:37.908Z,164.90
2019-02-24T01:17:07.329Z,175.30
2019-02-24T01:19:36.524Z,150.72
2019-02-24T01:22:06.238Z,139.40
2019-02-24T01:24:34.802Z,144.35
2019-02-24T01:27:03.829Z,141.10
2019-02-24T01:29:32.797Z,128.70
2019-02-24T01:32:02.199Z,137.85
2019-02-24T01:34:31.216Z,147.57
2019-02-24T01:37:01.633Z,124.93
2019-02-24T01:39:48.949Z,147.00
2019-02-24T01:42:17.831Z,181.02
2019-02-24T01:45:14.874Z,218.10
2019-02-24T01:47:43.764Z,214.95
2019-02-24T01:50:19.611Z,211.10
2019-02-24T01:52:49.416Z,178.07
2019-02-24T01:55:33.672Z,174.23
2019-02-24T01:58:02.676Z,178.70
2019-02-24T02:00:31.726Z,201.22
2019-02-24T02:03:01.340Z,194.05
2019-02-24T02:05:58.729Z,163.80
2019-02-24T02:14:01.953Z,131.60
2019-02-24T02:16:38.210Z,126.20
2019-02-24T02:19:07.005Z,146.98
2019-02-24T02:21:35.888Z,165.20
2019-02-24T02:24:06.729Z,188.66
2019-02-24T02:26:35.510Z,168.60
2019-02-24T02:29:16.786Z,157.18
2019-02-24T02:31:45.744Z,148.10
2019-02-24T02:34:29.925Z,143.87
2019-02-24T02:37:10.818Z,120.87
2019-02-24T02:39:39.604Z,129.37
2019-02-24T02:42:15.275Z,128.63
2019-02-24T02:44:43.808Z,133.67
2019-02-24T02:47:12.294Z,132.33
2019-02-24T02:49:42.310Z,139.67
2019-02-24T02:52:12.333Z,160.40
2019-02-24T02:54:41.646Z,174.95
2019-02-24T02:57:42.357Z,174.30
2019-02-24T03:00:33.499Z,152.83
2019-02-24T03:03:15.360Z,152.57
2019-02-24T03:05:45.458Z,162.90
2019-02-24T03:08:22.350Z,159.13
2019-02-24T03:10:51.652Z,168.68
2019-02-24T03:13:21.557Z,161.73
2019-02-24T03:15:50.663Z,149.43
2019-02-24T03:18:19.549Z,152.62
2019-02-24T03:20:48.538Z,152.90
2019-02-24T03:23:17.225Z,143.03
2019-02-24T03:26:10.175Z,151.87
2019-02-24T03:28:39.162Z,179.33
2019-02-24T03:31:08.059Z,157.70
2019-02-24T03:33:37.055Z,157.43
2019-02-24T03:36:06.699Z,147.90
2019-02-24T03:38:36.587Z,151.97
2019-02-24T03:41:06.994Z,178.94
2019-02-24T03:43:35.801Z,170.27
2019-02-24T03:46:14.807Z,166.00
2019-02-24T03:48:44.023Z,162.67
2019-02-24T03:51:12.902Z,162.23
2019-02-24T03:53:41.782Z,171.13
2019-02-24T03:56:11.311Z,152.30
2019-02-24T03:58:40.279Z,147.63
2019-02-24T04:01:08.966Z,123.13
2019-02-24T04:03:38.163Z,115.17
2019-02-24T04:06:06.949Z,109.73
2019-02-24T04:09:00.532Z,103.70
2019-02-24T04:11:40.249Z,106.60
2019-02-24T04:14:34.245Z,109.37
2019-02-24T04:17:09.286Z,110.27
2019-02-24T04:19:39.718Z,111.85
2019-02-24T04:22:08.682Z,69.53
2019-02-24T04:24:37.669Z,73.37
2019-02-24T04:27:12.811Z,73.83
2019-02-24T04:29:48.246Z,80.50
2019-02-24T04:32:44.294Z,76.42
2019-02-24T04:35:13.058Z,86.00
2019-02-24T04:40:41.070Z,79.10
2019-02-24T04:43:17.004Z,81.03
2019-02-24T04:45:45.892Z,77.90
2019-02-24T04:48:14.986Z,80.22
2019-02-24T04:50:43.973Z,80.50
2019-02-24T04:53:12.453Z,72.93
2019-02-24T04:55:41.445Z,79.50
2019-02-24T04:58:19.241Z,85.35
2019-02-24T05:00:48.269Z,84.73
2019-02-24T05:03:17.363Z,80.70
2019-02-24T05:05:46.321Z,85.83
2019-02-24T05:08:15.336Z,81.75
2019-02-24T05:10:44.327Z,79.30
2019-02-24T05:13:28.525Z,76.05
2019-02-24T05:15:57.451Z,87.50
2019-02-24T05:21:25.428Z,79.70
2019-02-24T05:26:54.745Z,99.23
2019-02-24T05:29:31.286Z,101.60
2019-02-24T05:32:00.823Z,104.50
2019-02-24T05:34:29.707Z,100.43
2019-02-24T05:36:58.758Z,94.30
2019-02-24T05:39:28.097Z,98.40
2019-02-24T05:41:56.991Z,101.77
2019-02-24T05:44:26.195Z,104.00
2019-02-24T05:46:58.451Z,124.03
2019-02-24T05:49:27.776Z,107.67
2019-02-24T05:51:56.958Z,129.23
2019-02-24T05:54:32.209Z,129.50
2019-02-24T05:57:02.614Z,117.17
2019-02-24T05:59:31.502Z,120.80
2019-02-24T06:02:00.702Z,171.93
2019-02-24T06:04:29.602Z,193.10
2019-02-24T06:06:58.683Z,188.60
2019-02-24T06:09:33.509Z,220.23
2019-02-24T06:12:02.707Z,215.82
2019-02-24T06:14:40.938Z,197.50
2019-02-24T06:17:09.812Z,166.10
2019-02-24T06:19:45.240Z,136.20
2019-02-24T06:22:13.933Z,138.07
2019-02-24T06:27:42.048Z,118.30
2019-02-24T06:30:11.194Z,120.90
2019-02-24T06:32:40.002Z,125.00
2019-02-24T06:35:08.583Z,123.70
2019-02-24T06:37:37.492Z,109.03
2019-02-24T06:40:07.486Z,116.47
2019-02-24T06:42:37.526Z,112.73
2019-02-24T06:45:08.271Z,110.15
2019-02-24T06:47:37.122Z,117.87
2019-02-24T06:50:07.753Z,110.73
2019-02-24T06:52:36.954Z,108.12
2019-02-24T06:55:07.753Z,98.93
2019-02-24T07:00:42.943Z,107.83
2019-02-24T07:03:33.259Z,102.57
2019-02-24T07:06:03.779Z,108.67
2019-02-24T07:08:38.585Z,116.97
2019-02-24T07:11:07.581Z,116.80
2019-02-24T07:13:36.471Z,120.03
2019-02-24T07:16:14.163Z,109.40
2019-02-24T07:18:43.052Z,107.23
2019-02-24T07:21:12.043Z,111.62
2019-02-24T07:23:42.465Z,116.83
2019-02-24T07:26:11.053Z,118.23
2019-02-24T07:28:40.373Z,102.47
2019-02-24T07:31:09.033Z,83.67
2019-02-24T07:33:37.919Z,87.27
2019-02-24T07:36:06.809Z,88.43
2019-02-24T07:38:35.702Z,89.83
2019-02-24T07:41:06.149Z,88.37
2019-02-24T07:43:35.122Z,92.37
2019-02-24T07:46:04.129Z,80.57
2019-02-24T07:48:32.997Z,83.50
2019-02-24T07:51:02.416Z,79.07
2019-02-24T07:53:31.285Z,78.97
2019-02-24T08:04:02.896Z,78.27
2019-02-24T08:06:31.594Z,85.10
2019-02-24T08:09:00.547Z,78.20
2019-02-24T08:11:31.088Z,82.57
2019-02-24T08:14:01.936Z,74.47
2019-02-24T08:16:30.514Z,79.80
2019-02-24T08:19:01.368Z,75.60
2019-02-24T08:21:29.926Z,76.73
2019-02-24T08:23:58.940Z,81.93
2019-02-24T08:26:27.907Z,76.03
2019-02-24T08:29:03.682Z,80.37
2019-02-24T08:31:32.468Z,84.67
2019-02-24T08:34:01.335Z,82.97
2019-02-24T08:36:30.349Z,81.60
2019-02-24T08:38:59.219Z,78.37
2019-02-24T08:41:28.740Z,73.60
2019-02-24T08:43:57.616Z,83.67
2019-02-24T08:46:26.495Z,73.67
2019-02-24T08:48:55.921Z,70.52
2019-02-24T08:51:24.785Z,69.47
2019-02-24T08:53:53.679Z,65.10
2019-02-24T08:56:22.587Z,68.10
2019-02-24T08:58:51.766Z,66.17
2019-02-24T09:01:20.647Z,69.83
2019-02-24T09:03:49.536Z,58.60
2019-02-24T09:06:18.133Z,61.57
2019-02-24T09:08:47.139Z,66.17
2019-02-24T09:11:15.946Z,65.40
2019-02-24T09:13:45.106Z,51.73
2019-02-24T09:16:13.685Z,49.57
2019-02-24T09:18:42.504Z,57.80
2019-02-24T09:21:11.044Z,57.15
2019-02-24T09:23:39.844Z,52.40
2019-02-24T09:26:08.621Z,45.27
2019-02-24T09:28:38.532Z,42.50
2019-02-24T09:31:08.854Z,45.80
2019-02-24T09:33:37.366Z,38.85
2019-02-24T09:36:07.413Z,41.87
2019-02-24T09:38:36.238Z,40.03
2019-02-24T09:41:08.103Z,39.82
2019-02-24T09:43:37.034Z,39.73
2019-02-24T09:46:06.305Z,43.87
2019-02-24T09:48:35.107Z,40.40
2019-02-24T09:51:08.808Z,42.04
2019-02-24T09:53:37.761Z,42.10
2019-02-24T09:56:06.452Z,41.83
2019-02-24T09:58:35.340Z,37.70
2019-02-24T10:01:10.562Z,41.92
2019-02-24T10:03:37.023Z,38.30
2019-02-24T10:06:06.213Z,38.37
2019-02-24T10:08:35.194Z,35.95
2019-02-24T10:11:03.777Z,38.05
2019-02-24T10:13:32.677Z,33.73
2019-02-24T10:16:03.496Z,34.73
2019-02-24T10:18:32.083Z,36.90
2019-02-24T10:21:02.914Z,34.07
2019-02-24T10:23:31.807Z,38.90
2019-02-24T10:26:00.905Z,33.73
2019-02-24T10:28:29.993Z,35.35
2019-02-24T10:30:58.989Z,34.15
2019-02-24T10:33:29.621Z,38.85
2019-02-24T10:35:58.609Z,36.23
2019-02-24T10:38:27.700Z,37.87
2019-02-24T10:40:56.592Z,33.33
2019-02-24T10:43:25.483Z,36.60
2019-02-24T10:46:00.361Z,34.35
2019-02-24T10:48:29.196Z,32.97
2019-02-24T10:50:58.042Z,34.50
2019-02-24T10:53:28.183Z,35.70
2019-02-24T10:56:12.454Z,33.90
2019-02-24T10:58:42.288Z,34.60
2019-02-24T11:01:11.058Z,45.05
2019-02-24T11:03:39.951Z,34.33
2019-02-24T11:06:08.525Z,30.80
2019-02-24T11:08:37.415Z,32.97
2019-02-24T11:11:06.918Z,30.18
2019-02-24T11:13:35.811Z,34.37
2019-02-24T11:16:06.129Z,32.56
2019-02-24T11:18:35.021Z,32.87
2019-02-24T11:21:03.621Z,32.30
2019-02-24T11:23:32.501Z,34.73
2019-02-24T11:26:03.835Z,35.73
2019-02-24T11:28:32.724Z,31.40
2019-02-24T11:31:03.363Z,34.92
2019-02-24T11:33:32.550Z,39.55
2019-02-24T11:36:01.825Z,36.05
2019-02-24T11:38:31.074Z,34.15
2019-02-24T11:41:02.109Z,30.68
2019-02-24T11:43:30.974Z,30.47
2019-02-24T11:46:02.330Z,30.13
2019-02-24T11:48:31.031Z,29.35
2019-02-24T11:51:00.028Z,28.80
2019-02-24T11:53:28.674Z,28.62
2019-02-24T11:55:57.883Z,31.52
2019-02-24T11:58:26.894Z,25.63
2019-02-24T12:00:55.474Z,27.95
2019-02-24T12:03:24.348Z,30.12
2019-02-24T12:05:53.474Z,30.90
2019-02-24T12:08:23.380Z,25.40
2019-02-24T12:10:52.242Z,28.52
2019-02-24T12:13:21.042Z,26.17
2019-02-24T12:15:49.918Z,25.93
2019-02-24T12:18:18.609Z,22.53
2019-02-24T12:20:47.388Z,24.87
2019-02-24T12:23:15.966Z,24.73
2019-02-24T12:25:44.596Z,27.13
2019-02-24T12:28:13.468Z,29.23
2019-02-24T12:30:43.864Z,25.93
2019-02-24T12:33:12.963Z,24.18
2019-02-24T12:35:41.923Z,25.37
2019-02-24T12:38:10.597Z,27.67
2019-02-24T12:40:39.445Z,25.92
2019-02-24T12:43:08.318Z,23.55
2019-02-24T12:45:37.204Z,26.17
2019-02-24T12:48:06.906Z,25.02
2019-02-24T12:50:36.006Z,22.15
2019-02-24T12:53:06.233Z,27.56
2019-02-24T12:55:34.935Z,22.85
2019-02-24T12:58:07.518Z,28.10
2019-02-24T13:00:36.578Z,25.67
2019-02-24T13:03:06.309Z,22.86
2019-02-24T13:05:35.173Z,24.23
2019-02-24T13:08:04.066Z,27.37
2019-02-24T13:10:32.648Z,26.25
2019-02-24T13:13:01.626Z,25.88
2019-02-24T13:15:30.548Z,25.90
2019-02-24T13:17:59.658Z,23.40
2019-02-24T13:20:30.652Z,22.98
2019-02-24T13:23:00.804Z,27.20
2019-02-24T13:25:30.667Z,24.40
2019-02-24T13:28:01.348Z,26.62
2019-02-24T13:30:30.979Z,24.35
2019-02-24T13:32:59.761Z,25.70
2019-02-24T13:35:28.705Z,24.17
2019-02-24T13:38:07.020Z,23.73
2019-02-24T13:40:35.806Z,27.50
2019-02-24T13:43:04.387Z,26.07
2019-02-24T13:45:33.283Z,25.87
2019-02-24T13:48:03.621Z,27.17
2019-02-24T13:50:32.494Z,26.23
2019-02-24T13:53:03.768Z,27.45
2019-02-24T13:55:32.572Z,26.53
2019-02-24T13:58:02.752Z,26.73
2019-02-24T14:00:34.607Z,31.05
2019-02-24T14:03:09.163Z,27.90
2019-02-24T14:05:37.709Z,27.62
2019-02-24T14:08:06.291Z,26.75
2019-02-24T14:10:35.274Z,27.63
2019-02-24T14:13:04.981Z,26.60
2019-02-24T14:15:34.386Z,27.62
2019-02-24T14:18:02.968Z,25.45
2019-02-24T14:20:31.665Z,29.82
2019-02-24T14:23:05.186Z,28.25
2019-02-24T14:25:35.472Z,52.95
2019-02-24T14:28:06.432Z,35.84
2019-02-24T14:30:35.421Z,27.20
2019-02-24T14:33:03.995Z,28.25
2019-02-24T14:35:32.872Z,25.40
2019-02-24T14:38:03.321Z,26.25
2019-02-24T14:40:31.837Z,24.55
2019-02-24T14:43:01.121Z,24.70
2019-02-24T14:45:29.962Z,25.77
2019-02-24T14:47:58.854Z,25.47
2019-02-24T14:50:28.064Z,24.30
2019-02-24T14:52:56.767Z,26.37
2019-02-24T14:55:25.629Z,23.83
2019-02-24T14:57:54.332Z,24.20
2019-02-24T15:00:24.292Z,29.82
2019-02-24T15:02:53.835Z,28.73
2019-02-24T15:05:22.717Z,27.75
2019-02-24T15:07:51.710Z,24.55
2019-02-24T15:10:23.940Z,24.07
2019-02-24T15:12:52.769Z,26.65
2019-02-24T15:15:26.383Z,25.20
2019-02-24T15:17:53.306Z,28.17
2019-02-24T15:20:23.450Z,27.43
2019-02-24T15:22:55.486Z,28.30
2019-02-24T15:25:24.089Z,26.60
2019-02-24T15:27:53.265Z,25.77
2019-02-24T15:30:23.689Z,29.00
2019-02-24T15:32:52.552Z,26.73
2019-02-24T15:35:21.478Z,26.77
2019-02-24T15:37:51.042Z,29.70
2019-02-24T15:40:19.913Z,26.80
2019-02-24T15:42:48.866Z,24.70
2019-02-24T15:45:17.436Z,27.13
2019-02-24T15:47:46.038Z,24.25
2019-02-24T15:50:14.820Z,27.13
2019-02-24T15:52:43.935Z,25.37
2019-02-24T15:55:13.214Z,27.27
2019-02-24T15:57:42.001Z,22.07
2019-02-24T16:00:27.534Z,25.17
2019-02-24T16:03:01.847Z,25.25
2019-02-24T16:05:30.066Z,23.17
2019-02-24T16:07:58.807Z,24.35
2019-02-24T16:10:30.114Z,25.00
2019-02-24T16:12:59.052Z,23.20
2019-02-24T16:15:28.546Z,25.90
2019-02-24T16:17:57.676Z,24.95
2019-02-24T16:20:31.310Z,28.47
2019-02-24T16:23:01.969Z,25.97
2019-02-24T16:25:30.612Z,28.05
2019-02-24T16:28:01.626Z,28.70
2019-02-24T16:30:30.440Z,27.30
2019-02-24T16:32:59.408Z,26.02
2019-02-24T16:35:29.654Z,27.35
2019-02-24T16:37:58.317Z,28.50
2019-02-24T16:40:28.328Z,26.77
2019-02-24T16:42:57.318Z,27.10
2019-02-24T16:45:26.130Z,25.32
2019-02-24T16:47:55.019Z,26.67
2019-02-24T16:50:24.526Z,28.30
2019-02-24T16:52:53.498Z,30.83
2019-02-24T16:55:25.173Z,27.27
2019-02-24T16:57:53.855Z,27.60
2019-02-24T17:00:24.938Z,27.65
2019-02-24T17:02:54.074Z,29.57
2019-02-24T17:05:23.870Z,25.65
2019-02-24T17:07:53.138Z,25.08
2019-02-24T17:10:22.882Z,28.57
2019-02-24T17:12:51.793Z,30.08
2019-02-24T17:15:20.371Z,28.47
2019-02-24T17:17:50.510Z,26.95
2019-02-24T17:20:19.880Z,32.90
2019-02-24T17:22:49.901Z,33.93
2019-02-24T17:25:18.656Z,31.20
2019-02-24T17:27:47.159Z,29.45
2019-02-24T17:30:16.142Z,30.43
2019-02-24T17:32:44.988Z,34.13
2019-02-24T17:35:13.826Z,30.62
2019-02-24T17:37:43.123Z,37.08
2019-02-24T17:40:13.147Z,36.23
2019-02-24T17:42:42.133Z,32.10
2019-02-24T17:45:12.659Z,33.70
2019-02-24T17:47:41.483Z,33.83
2019-02-24T17:50:10.993Z,33.53
2019-02-24T19:05:12.497Z,60.57
2019-02-24T19:07:41.269Z,70.13
2019-02-24T19:25:03.398Z,79.43
2019-02-24T19:27:52.121Z,88.97
2019-02-24T19:30:21.116Z,118.63
2019-02-24T19:36:11.869Z,85.07
2019-02-24T19:38:40.749Z,84.03
2019-02-24T19:41:10.203Z,85.17
2019-02-24T19:43:38.742Z,80.85
2019-02-24T19:46:07.392Z,77.10
2019-02-24T19:51:25.122Z,74.15
2019-02-24T19:53:54.020Z,65.77
2019-02-24T19:56:45.312Z,68.70
2019-02-24T19:59:24.382Z,60.10
2019-02-24T20:02:22.838Z,58.60
2019-02-24T20:04:52.038Z,57.45
2019-02-24T20:07:26.505Z,50.00
2019-02-24T20:09:55.877Z,51.35
2019-02-24T20:12:24.511Z,49.27
2019-02-24T20:14:53.430Z,54.90
2019-02-24T20:17:24.904Z,58.90
2019-02-24T20:20:20.900Z,54.13
2019-02-24T20:22:50.241Z,56.02
2019-02-24T20:28:00.581Z,60.53
2019-02-24T20:30:30.905Z,57.48
2019-02-24T20:33:00.302Z,57.17
2019-02-24T20:35:29.393Z,53.68
2019-02-24T20:37:58.181Z,49.83
2019-02-24T20:40:27.198Z,50.97
2019-02-24T20:43:09.354Z,50.30
2019-02-24T20:45:38.151Z,55.67
2019-02-24T20:48:06.851Z,51.03
2019-02-24T20:50:35.743Z,53.63
2019-02-24T20:53:05.858Z,54.23
2019-02-24T20:55:34.540Z,69.20
2019-02-24T20:58:03.574Z,84.00
2019-02-24T21:00:34.080Z,96.17
2019-02-24T21:03:02.944Z,65.10
2019-02-24T21:05:32.017Z,56.85
2019-02-24T21:08:01.039Z,46.13
2019-02-24T21:10:30.120Z,48.90
2019-02-24T21:13:00.343Z,37.37
2019-02-24T21:15:29.646Z,39.98
2019-02-24T21:18:17.889Z,38.50
2019-02-24T21:20:46.826Z,48.17
2019-02-24T21:23:22.935Z,47.62
2019-02-24T21:25:51.831Z,48.83
2019-02-24T21:28:48.986Z,53.83
2019-02-24T21:31:17.888Z,57.03
2019-02-24T21:34:34.380Z,63.20
2019-02-24T21:36:21.793Z,55.47
2019-02-24T21:38:51.084Z,51.07
2019-02-24T21:41:20.132Z,49.63
2019-02-24T21:43:49.004Z,45.63
2019-02-24T21:46:17.962Z,44.15
2019-02-24T21:48:47.055Z,49.47
2019-02-24T21:51:15.634Z,52.67
2019-02-24T21:53:46.628Z,50.50
2019-02-24T21:56:15.466Z,49.50
2019-02-24T21:58:44.581Z,47.93
2019-02-24T22:01:13.367Z,40.17
2019-02-24T22:03:42.439Z,34.67
2019-02-24T22:06:11.325Z,33.80
2019-02-24T22:08:40.216Z,36.97
2019-02-24T22:11:08.896Z,38.13
2019-02-24T22:13:37.895Z,37.67
2019-02-24T22:16:06.876Z,31.50
2019-02-24T22:18:35.661Z,31.27
2019-02-24T22:21:04.248Z,33.30
2019-02-24T22:23:33.451Z,36.40
2019-02-24T22:26:02.337Z,37.67
2019-02-24T22:28:32.326Z,35.13
2019-02-24T22:31:01.152Z,37.73
2019-02-24T22:33:29.917Z,37.10
2019-02-24T22:36:00.457Z,35.73
2019-02-24T22:38:29.341Z,36.93
2019-02-24T22:40:58.338Z,37.57
2019-02-24T22:43:27.226Z,32.80
2019-02-24T22:46:03.636Z,34.92
2019-02-24T22:48:32.474Z,38.02
2019-02-24T22:51:28.939Z,34.65
2019-02-24T22:53:57.907Z,34.63
2019-02-24T22:59:32.378Z,35.00
2019-02-24T23:02:06.743Z,45.33
2019-02-24T23:04:38.857Z,58.50
2019-02-24T23:07:08.874Z,48.03
2019-02-24T23:09:38.139Z,46.17
2019-02-24T23:12:09.489Z,46.70
2019-02-24T23:14:41.366Z,41.13
2019-02-24T23:17:10.235Z,40.28
2019-02-24T23:19:58.370Z,40.83
2019-02-24T23:22:31.206Z,37.85
2019-02-24T23:25:00.288Z,42.85
2019-02-24T23:27:30.613Z,51.00
2019-02-24T23:30:01.096Z,49.63
2019-02-24T23:32:29.988Z,53.17
2019-02-24T23:35:02.112Z,53.40
2019-02-24T23:37:32.558Z,51.57
2019-02-24T23:40:03.720Z,51.80
2019-02-24T23:42:59.878Z,51.47
2019-02-24T23:45:30.472Z,47.85
2019-02-24T23:48:00.493Z,49.60
2019-02-24T23:50:29.073Z,55.45
2019-02-24T23:52:57.962Z,59.80
2019-02-24T23:55:26.544Z,64.20
2019-02-24T23:57:55.865Z,67.07
